Time;durP1;ratioP1;P1;durP2;ratioP2;P2;SDS_P1;SDS_P2;PMS_P1;PMS_P2;Temp;Humidity;BMP_temperature;BMP_pressure;BME280_temperature;BME280_humidity;BME280_pressure;Samples;Min_cycle;Max_cycle;Signal;HPM_P1;HPM_P2
2022/07/05 00:00:20;;;;;;;3.30;2.53;;;;;;;22.58;49.94;97209.19;5086960;28;20189;-72
2022/07/05 00:02:47;;;;;;;3.87;2.40;;;;;;;22.75;49.56;97212.91;5086719;28;20189;-72
2022/07/05 00:05:14;;;;;;;3.20;2.63;;;;;;;22.75;49.20;97207.63;5086081;28;20199;-73
2022/07/05 00:07:41;;;;;;;4.33;2.47;;;;;;;22.84;49.58;97219.97;5086780;28;20684;-72
2022/07/05 00:10:08;;;;;;;6.00;2.30;;;;;;;22.88;49.31;97216.91;5086934;28;20197;-72
2022/07/05 00:12:36;;;;;;;4.40;2.83;;;;;;;22.75;49.57;97212.91;5086475;28;20218;-73
2022/07/05 00:15:03;;;;;;;4.10;2.80;;;;;;;22.60;49.60;97200.16;5068848;28;20244;-72
2022/07/05 00:17:30;;;;;;;5.70;3.13;;;;;;;22.62;49.89;97218.50;5086363;28;20582;-72
2022/07/05 00:19:58;;;;;;;5.30;2.90;;;;;;;22.48;50.31;97222.31;5068900;28;20276;-71
2022/07/05 00:22:25;;;;;;;3.17;2.50;;;;;;;22.03;51.70;97215.91;5068479;28;20587;-73
2022/07/05 00:24:56;;;;;;;3.27;2.97;;;;;;;21.51;53.46;97213.50;5086850;28;20232;-71
2022/07/05 00:27:23;;;;;;;4.90;3.53;;;;;;;21.09;54.55;97207.50;5068646;28;20190;-71
2022/07/05 00:29:50;;;;;;;4.10;2.83;;;;;;;20.87;55.35;97192.66;5068092;28;20184;-71
2022/07/05 00:32:17;;;;;;;3.57;2.97;;;;;;;20.82;55.88;97189.56;5086730;28;20182;-70
2022/07/05 00:34:44;;;;;;;6.40;3.50;;;;;;;20.74;56.67;97185.91;5086323;28;20189;-70
2022/07/05 00:37:12;;;;;;;4.20;3.10;;;;;;;21.09;55.85;97178.53;5068356;28;20301;-71
2022/07/05 00:39:39;;;;;;;4.30;3.23;;;;;;;21.37;55.07;97179.63;5068259;28;20185;-71
2022/07/05 00:42:07;;;;;;;4.93;3.57;;;;;;;21.34;54.95;97182.50;5068317;28;20185;-71
2022/07/05 00:44:37;;;;;;;4.67;3.60;;;;;;;21.16;55.69;97192.84;5086978;28;20192;-71
2022/07/05 00:47:05;;;;;;;7.47;3.40;;;;;;;20.99;56.36;97188.97;5068091;28;20185;-71
2022/07/05 00:49:34;;;;;;;7.77;3.53;;;;;;;21.11;56.10;97184.50;5068587;28;20243;-71
2022/07/05 00:52:02;;;;;;;5.07;3.77;;;;;;;21.43;55.27;97179.09;5068112;28;20658;-71
2022/07/05 00:54:47;;;;;;;4.87;3.30;;;;;;;21.74;54.74;97167.53;5086147;28;20277;-71
2022/07/05 00:57:15;;;;;;;4.70;2.93;;;;;;;22.05;54.54;97168.31;5086026;28;20266;-71
2022/07/05 00:59:42;;;;;;;3.50;3.20;;;;;;;22.00;54.77;97173.97;5085855;28;20220;-71
2022/07/05 01:02:09;;;;;;;4.00;2.90;;;;;;;21.92;55.18;97165.94;5068822;28;20186;-71
2022/07/05 01:04:42;;;;;;;7.47;3.60;;;;;;;21.96;55.10;97161.19;5085994;28;20186;-71
2022/07/05 01:07:10;;;;;;;3.37;3.00;;;;;;;21.81;55.83;97160.72;5051671;28;20562;-71
2022/07/05 01:09:38;;;;;;;5.53;3.23;;;;;;;21.87;55.86;97165.50;5068316;28;20189;-71
2022/07/05 01:12:05;;;;;;;4.93;3.20;;;;;;;21.56;56.83;97155.94;5068195;28;20190;-71
2022/07/05 01:14:32;;;;;;;3.80;3.20;;;;;;;21.50;56.75;97159.13;5086085;28;21204;-71
2022/07/05 01:16:59;;;;;;;5.63;3.40;;;;;;;21.10;57.48;97176.72;5088126;28;20570;-71
2022/07/05 01:19:26;;;;;;;3.43;3.10;;;;;;;20.63;58.59;97168.38;5089978;28;20577;-71
2022/07/05 01:21:54;;;;;;;4.93;3.20;;;;;;;20.55;59.19;97165.56;5089633;28;20209;-71
2022/07/05 01:24:22;;;;;;;5.00;3.20;;;;;;;20.47;59.29;97167.16;5071640;28;20197;-71
2022/07/05 01:26:50;;;;;;;3.67;3.10;;;;;;;20.07;60.99;97157.25;5071767;28;20185;-71
2022/07/05 01:29:17;;;;;;;6.00;3.57;;;;;;;19.84;61.76;97160.09;5089760;28;20192;-71
2022/07/05 01:31:44;;;;;;;6.20;3.33;;;;;;;19.80;61.55;97171.81;5089720;28;20676;-72
2022/07/05 01:34:12;;;;;;;6.00;3.67;;;;;;;19.67;61.79;97177.22;5071366;28;20296;-71
2022/07/05 01:36:39;;;;;;;4.47;3.27;;;;;;;19.47;62.88;97172.72;5089611;28;20232;-72
2022/07/05 01:39:08;;;;;;;6.20;3.40;;;;;;;19.34;63.29;97180.72;5070934;28;20268;-71
2022/07/05 01:41:35;;;;;;;6.03;3.27;;;;;;;19.13;63.98;97176.25;5071323;28;20197;-71
2022/07/05 01:44:03;;;;;;;4.97;3.00;;;;;;;19.22;63.42;97175.56;5089044;28;20377;-71
2022/07/05 01:46:37;;;;;;;3.97;3.17;;;;;;;19.61;62.46;97176.88;5071221;28;20194;-71
2022/07/05 01:49:08;;;;;;;6.27;3.57;;;;;;;19.38;62.08;97179.53;5089526;28;20659;-71
2022/07/05 01:51:50;;;;;;;4.37;3.20;;;;;;;19.46;61.99;97161.38;5088749;28;20199;-71
2022/07/05 01:54:19;;;;;;;3.33;3.03;;;;;;;19.64;61.31;97166.13;5054418;28;20230;-74
2022/07/05 01:56:46;;;;;;;7.77;3.47;;;;;;;19.46;61.76;97164.00;5070907;28;20184;-71
2022/07/05 01:59:13;;;;;;;4.97;3.30;;;;;;;19.33;62.66;97163.28;5089043;28;20223;-72
2022/07/05 02:01:40;;;;;;;4.83;3.37;;;;;;;19.22;62.33;97175.56;5070825;28;20189;-72
2022/07/05 02:04:09;;;;;;;4.40;3.17;;;;;;;19.06;62.68;97173.28;5070621;28;20235;-71
2022/07/05 02:06:37;;;;;;;5.07;2.97;;;;;;;18.99;63.65;97166.00;5089207;28;20196;-71
2022/07/05 02:09:07;;;;;;;5.40;3.20;;;;;;;18.97;63.57;97160.88;5071022;28;20265;-71
2022/07/05 02:11:35;;;;;;;8.80;3.33;;;;;;;18.99;62.90;97169.47;5070936;28;20180;-71
2022/07/05 02:14:03;;;;;;;4.77;3.30;;;;;;;19.26;62.81;97164.72;5088338;28;20219;-72
2022/07/05 02:16:35;;;;;;;4.10;3.00;;;;;;;19.66;61.31;97164.22;5070527;28;20663;-74
2022/07/05 02:19:04;;;;;;;14.13;3.80;;;;;;;20.00;60.18;97160.53;5070670;28;20266;-72
2022/07/05 02:21:35;;;;;;;3.10;2.80;;;;;;;19.99;60.01;97153.59;5070278;28;20747;-72
2022/07/05 02:24:06;;;;;;;5.30;3.70;;;;;;;19.76;60.68;97155.47;5070788;28;20263;-71
2022/07/05 02:26:39;;;;;;;5.73;3.37;;;;;;;19.73;60.54;97160.13;5070456;28;20191;-72
2022/07/05 02:29:07;;;;;;;4.53;3.43;;;;;;;19.96;60.54;97169.63;5069839;28;20345;-71
2022/07/05 02:31:35;;;;;;;6.83;3.03;;;;;;;20.15;59.90;97167.16;5070113;28;20250;-71
2022/07/05 02:34:03;;;;;;;3.87;3.20;;;;;;;20.09;59.84;97173.75;5070024;28;20243;-71
2022/07/05 02:36:31;;;;;;;4.33;3.17;;;;;;;20.31;59.65;97182.53;5070061;28;20228;-71
2022/07/05 02:38:59;;;;;;;8.67;4.00;;;;;;;20.23;59.63;97184.03;5070092;28;20259;-71
2022/07/05 02:41:26;;;;;;;8.23;3.83;;;;;;;20.27;59.68;97177.56;5088682;28;20189;-71
2022/07/05 02:43:53;;;;;;;6.50;4.20;;;;;;;20.36;59.58;97175.94;5069804;28;20189;-71
2022/07/05 02:46:26;;;;;;;11.57;5.07;;;;;;;20.38;59.50;97181.91;5088297;28;20538;-73
2022/07/05 02:48:56;;;;;;;6.30;3.90;;;;;;;20.30;59.80;97171.19;5070533;28;20180;-71
2022/07/05 02:51:29;;;;;;;8.80;3.87;;;;;;;20.43;59.62;97173.63;5069659;28;20181;-71
2022/07/05 02:53:56;;;;;;;7.57;4.13;;;;;;;20.20;60.77;97176.38;5069812;28;20219;-72
2022/07/05 02:56:23;;;;;;;4.70;3.53;;;;;;;19.62;61.77;97189.88;5087872;28;20193;-71
2022/07/05 02:58:50;;;;;;;5.30;4.00;;;;;;;19.26;62.56;97183.09;5053404;28;20272;-70
2022/07/05 03:01:19;;;;;;;5.93;3.90;;;;;;;19.14;63.35;97198.94;5069571;28;20275;-71
2022/07/05 03:03:48;;;;;;;6.13;4.33;;;;;;;19.17;64.61;97194.28;5070092;28;20181;-70
2022/07/05 03:06:17;;;;;;;4.73;4.00;;;;;;;19.10;64.65;97193.09;5069798;28;20188;-70
2022/07/05 03:08:44;;;;;;;4.37;3.60;;;;;;;18.84;64.93;97194.25;5087772;28;20626;-71
2022/07/05 03:11:12;;;;;;;5.50;3.83;;;;;;;18.71;65.71;97190.06;5069485;28;20183;-72
2022/07/05 03:13:39;;;;;;;5.63;3.37;;;;;;;18.53;66.21;97192.28;5069382;28;20226;-72
2022/07/05 03:16:08;;;;;;;6.70;3.63;;;;;;;18.72;66.14;97200.44;5069878;28;20275;-73
2022/07/05 03:18:35;;;;;;;5.83;4.07;;;;;;;18.83;65.62;97199.63;5069183;28;20191;-73
2022/07/05 03:21:05;;;;;;;4.90;3.73;;;;;;;18.89;65.57;97200.00;5071168;28;20591;-72
2022/07/05 03:23:34;;;;;;;8.27;4.00;;;;;;;18.81;65.75;97191.03;5069359;28;20680;-72
2022/07/05 03:26:01;;;;;;;5.40;3.50;;;;;;;18.81;65.53;97178.75;5087985;28;20496;-72
2022/07/05 03:28:29;;;;;;;3.30;3.00;;;;;;;18.85;65.85;97198.56;5070823;28;20249;-72
2022/07/05 03:30:59;;;;;;;4.63;3.73;;;;;;;18.69;66.48;97200.69;5049619;28;20663;-73
2022/07/05 03:33:26;;;;;;;5.80;3.60;;;;;;;18.68;66.54;97191.13;5060533;28;20227;-73
2022/07/05 03:35:58;;;;;;;4.57;3.87;;;;;;;18.87;66.55;97177.44;5048605;28;20229;-72
2022/07/05 03:38:26;;;;;;;5.67;3.60;;;;;;;18.93;66.15;97174.34;5064102;28;20188;-72
2022/07/05 03:40:53;;;;;;;4.00;3.60;;;;;;;18.92;66.01;97170.88;5053442;28;20193;-73
2022/07/05 03:43:23;;;;;;;6.17;3.43;;;;;;;19.10;65.90;97179.97;5047622;28;20267;-72
2022/07/05 03:45:50;;;;;;;5.53;3.93;;;;;;;19.22;65.68;97173.78;5047508;28;20193;-72
2022/07/05 03:48:17;;;;;;;4.47;3.23;;;;;;;19.23;65.26;97164.09;5046530;28;20181;-72
2022/07/05 03:51:05;;;;;;;4.10;3.67;;;;;;;19.16;65.95;97176.03;5046587;28;20272;-72
2022/07/05 03:53:32;;;;;;;7.57;5.03;;;;;;;19.58;64.68;97172.69;5046019;28;20312;-72
2022/07/05 03:56:01;;;;;;;18.57;5.33;;;;;;;20.09;62.51;97171.09;5045824;28;20200;-73
2022/07/05 03:58:30;;;;;;;4.10;3.40;;;;;;;20.33;62.06;97173.56;5046037;28;20697;-73
2022/07/05 04:00:59;;;;;;;7.33;4.10;;;;;;;20.42;60.86;97170.19;5045862;28;20220;-73
2022/07/05 04:03:28;;;;;;;4.20;3.77;;;;;;;20.73;60.03;97169.28;5045983;28;20190;-73
2022/07/05 04:05:56;;;;;;;4.43;3.40;;;;;;;21.06;58.50;97169.06;5045752;28;20616;-71
2022/07/05 04:08:23;;;;;;;4.23;3.37;;;;;;;21.24;57.20;97142.13;5045301;28;20195;-73
2022/07/05 04:10:51;;;;;;;4.47;4.03;;;;;;;21.85;55.40;97170.06;5047101;28;20197;-72
2022/07/05 04:13:20;;;;;;;11.33;4.33;;;;;;;22.28;53.97;97156.50;5045099;28;20214;-72
2022/07/05 04:15:49;;;;;;;8.40;4.00;;;;;;;22.71;52.64;97164.81;5045103;28;20183;-73
2022/07/05 04:18:17;;;;;;;4.67;4.13;;;;;;;23.16;51.55;97163.16;5028933;28;20190;-72
2022/07/05 04:20:45;;;;;;;4.93;4.20;;;;;;;23.57;50.42;97169.03;5062369;28;20700;-72
2022/07/05 04:23:13;;;;;;;6.03;4.23;;;;;;;23.54;49.88;97159.56;5028429;28;20263;-74
2022/07/05 04:25:41;;;;;;;7.20;4.47;;;;;;;23.96;49.20;97165.16;5062315;28;20186;-73
2022/07/05 04:28:37;;;;;;;4.93;4.40;;;;;;;24.17;48.26;97163.91;5039135;28;20710;-74
2022/07/05 04:31:08;;;;;;;11.90;5.17;;;;;;;24.27;48.11;97153.28;5028385;28;20193;-72
2022/07/05 04:33:40;;;;;;;8.83;4.80;;;;;;;24.49;48.01;97168.69;5045106;28;20229;-73
2022/07/05 04:36:09;;;;;;;8.60;4.90;;;;;;;24.58;47.65;97156.34;5044552;28;20234;-73
2022/07/05 04:38:36;;;;;;;9.27;4.87;;;;;;;24.85;47.42;97159.72;5045064;28;20182;-72
2022/07/05 04:41:04;;;;;;;7.30;5.00;;;;;;;24.81;46.90;97155.72;5044928;28;20682;-72
2022/07/05 04:43:34;;;;;;;10.33;4.73;;;;;;;25.03;46.86;97152.56;5045179;28;20188;-73
2022/07/05 04:46:04;;;;;;;8.43;4.93;;;;;;;24.87;46.93;97151.63;5045261;28;20194;-73
2022/07/05 04:48:31;;;;;;;10.83;4.77;;;;;;;24.79;47.12;97147.09;5045423;28;20243;-73
2022/07/05 04:51:00;;;;;;;8.97;4.40;;;;;;;25.18;46.55;97142.22;5047339;28;20696;-73
2022/07/05 04:53:30;;;;;;;8.60;4.10;;;;;;;24.69;47.96;97148.16;5032450;28;20679;-73
2022/07/05 04:55:57;;;;;;;12.87;4.47;;;;;;;24.36;49.05;97146.25;5032552;28;20205;-73
2022/07/05 04:58:24;;;;;;;6.67;4.03;;;;;;;24.09;49.31;97147.97;5048692;28;20278;-73
2022/07/05 05:00:51;;;;;;;8.10;4.30;;;;;;;23.74;50.13;97155.00;5049790;28;20195;-73
2022/07/05 05:03:20;;;;;;;6.83;4.47;;;;;;;23.83;49.96;97144.38;5049876;28;20191;-73
2022/07/05 05:05:48;;;;;;;8.70;4.17;;;;;;;24.23;49.63;97149.28;5049700;28;20191;-73
2022/07/05 05:08:16;;;;;;;7.43;4.90;;;;;;;24.84;48.20;97154.56;5048955;28;20684;-73
2022/07/05 05:10:43;;;;;;;5.70;4.10;;;;;;;25.12;46.76;97157.91;5048493;28;20679;-73
2022/07/05 05:13:10;;;;;;;5.67;4.37;;;;;;;24.80;47.33;97158.53;5048995;28;20192;-73
2022/07/05 05:15:37;;;;;;;7.60;4.20;;;;;;;24.74;47.42;97156.50;5049724;28;20814;-73
2022/07/05 05:18:04;;;;;;;5.60;4.30;;;;;;;24.74;47.60;97153.84;5047886;28;20208;-73
2022/07/05 05:20:31;;;;;;;7.10;4.60;;;;;;;24.76;48.18;97158.00;5048366;28;20191;-73
2022/07/05 05:23:05;;;;;;;9.57;4.73;;;;;;;25.26;46.81;97158.16;5049563;28;20639;-73
2022/07/05 05:25:34;;;;;;;10.50;4.73;;;;;;;25.08;47.04;97146.78;5049993;28;20254;-73
2022/07/05 05:28:02;;;;;;;9.77;4.67;;;;;;;25.36;46.88;97142.97;5049440;28;20195;-73
2022/07/05 05:30:29;;;;;;;6.17;3.70;;;;;;;25.64;46.72;97155.03;5049663;28;20576;-73
2022/07/05 05:32:56;;;;;;;5.80;3.43;;;;;;;25.70;47.04;97157.03;5049601;28;20267;-73
2022/07/05 05:35:25;;;;;;;8.43;3.13;;;;;;;25.39;47.49;97147.94;5049085;28;20637;-73
2022/07/05 05:37:55;;;;;;;5.90;3.47;;;;;;;25.46;47.46;97151.66;5069044;28;20228;-73
2022/07/05 05:40:23;;;;;;;7.83;3.90;;;;;;;25.71;47.15;97158.72;5069395;28;20193;-73
2022/07/05 05:42:52;;;;;;;3.77;3.40;;;;;;;25.78;46.72;97162.38;5069286;28;20189;-73
2022/07/05 05:45:20;;;;;;;6.87;3.53;;;;;;;25.45;46.63;97154.47;5068466;28;20188;-73
2022/07/05 05:47:50;;;;;;;6.00;3.30;;;;;;;25.69;46.31;97162.53;5069047;28;20817;-74
2022/07/05 05:50:22;;;;;;;4.93;3.53;;;;;;;25.77;46.37;97168.69;5034270;28;20205;-74
2022/07/05 05:52:49;;;;;;;7.07;3.90;;;;;;;26.20;45.76;97172.97;5068855;28;20189;-74
2022/07/05 05:55:17;;;;;;;5.10;3.30;;;;;;;26.07;43.80;97132.78;5034480;28;20221;-73
2022/07/05 05:57:44;;;;;;;6.30;3.27;;;;;;;26.10;43.64;97164.31;5050645;28;20201;-74
2022/07/05 06:00:12;;;;;;;5.20;3.30;;;;;;;26.08;43.33;97165.47;5069464;28;20677;-73
2022/07/05 06:02:40;;;;;;;5.07;3.30;;;;;;;25.85;43.63;97170.53;5067366;28;20692;-73
2022/07/05 06:05:08;;;;;;;5.27;3.90;;;;;;;26.24;43.95;97168.16;5068784;28;20193;-75
2022/07/05 06:07:50;;;;;;;4.40;3.23;;;;;;;26.82;41.85;97160.91;5050485;28;20251;-73
2022/07/05 06:10:20;;;;;;;9.30;3.80;;;;;;;27.05;41.23;97172.50;5050712;28;20204;-73
2022/07/05 06:12:48;;;;;;;6.87;4.40;;;;;;;27.12;40.20;97162.03;5067388;28;20309;-74
2022/07/05 06:15:16;;;;;;;5.40;3.90;;;;;;;27.01;40.33;97163.22;5067730;28;20292;-73
2022/07/05 06:17:44;;;;;;;4.70;3.67;;;;;;;26.95;40.90;97161.22;5068398;28;20527;-73
2022/07/05 06:20:19;;;;;;;6.20;3.80;;;;;;;27.46;40.05;97159.13;5067786;28;20189;-74
2022/07/05 06:22:48;;;;;;;6.03;4.13;;;;;;;27.51;39.41;97157.63;5068239;28;20185;-73
2022/07/05 06:25:15;;;;;;;5.57;4.00;;;;;;;27.66;37.67;97153.22;5050225;28;20192;-73
2022/07/05 06:27:53;;;;;;;7.57;4.13;;;;;;;28.13;38.01;97164.66;5067656;28;20284;-74
2022/07/05 06:30:23;;;;;;;5.83;4.03;;;;;;;28.33;36.88;97157.03;5068158;28;20264;-72
2022/07/05 06:32:51;;;;;;;7.80;5.07;;;;;;;28.17;36.66;97152.63;5067655;28;20213;-74
2022/07/05 06:35:18;;;;;;;4.90;4.00;;;;;;;28.19;37.00;97153.28;5049565;28;20255;-74
2022/07/05 06:37:48;;;;;;;9.63;4.37;;;;;;;28.34;35.31;97160.53;5049570;28;20229;-74
2022/07/05 06:40:23;;;;;;;5.00;4.30;;;;;;;28.66;35.54;97161.16;5067897;28;20208;-74
2022/07/05 06:42:51;;;;;;;10.53;4.63;;;;;;;28.70;34.95;97165.09;5066712;28;20276;-74
2022/07/05 06:45:22;;;;;;;7.40;4.40;;;;;;;28.84;35.49;97156.31;5066194;28;20239;-75
2022/07/05 06:48:01;;;;;;;7.10;4.17;;;;;;;28.97;34.15;97159.16;5068060;28;20669;-73
2022/07/05 06:50:30;;;;;;;6.47;4.60;;;;;;;28.95;34.05;97160.38;5067919;28;20197;-73
2022/07/05 06:52:57;;;;;;;5.60;5.07;;;;;;;29.07;34.34;97160.75;5067060;28;20192;-74
2022/07/05 06:55:27;;;;;;;5.47;4.90;;;;;;;29.01;34.08;97157.00;5067036;28;20220;-74
2022/07/05 06:58:03;;;;;;;10.67;4.77;;;;;;;28.87;34.20;97157.78;5066908;28;20253;-73
2022/07/05 07:00:40;;;;;;;5.97;4.77;;;;;;;28.95;34.05;97147.84;5049899;28;20308;-74
2022/07/05 07:03:27;;;;;;;6.20;3.53;;;;;;;29.15;33.30;97150.03;5032104;28;20196;-73
2022/07/05 07:06:15;;;;;;;6.50;3.70;;;;;;;29.22;33.24;97145.63;5066725;28;20200;-74
2022/07/05 07:11:29;;;;;;;6.13;4.23;;;;;;;29.41;33.21;97147.72;5066737;28;20700;-74
2022/07/05 07:13:56;;;;;;;6.17;4.27;;;;;;;29.45;33.33;97144.50;5048756;28;20692;-73
2022/07/05 07:16:23;;;;;;;6.90;4.27;;;;;;;29.58;32.81;97143.88;5066895;28;20621;-74
2022/07/05 07:18:51;;;;;;;8.13;4.17;;;;;;;29.62;33.17;97137.13;5066793;28;20189;-74
2022/07/05 07:21:39;;;;;;;4.23;3.80;;;;;;;29.86;33.49;97144.88;5067174;28;20682;-74
2022/07/05 07:24:07;;;;;;;4.83;3.87;;;;;;;30.02;32.45;97143.81;5067283;28;20193;-73
2022/07/05 07:29:21;;;;;;;5.90;3.80;;;;;;;29.99;33.27;97131.66;5066771;28;20215;-74
2022/07/05 07:31:48;;;;;;;6.97;3.97;;;;;;;30.08;33.69;97132.38;5031842;28;20598;-75
2022/07/05 07:34:15;;;;;;;6.10;4.47;;;;;;;29.59;33.95;97133.00;5066417;28;20192;-73
2022/07/05 07:36:42;;;;;;;7.73;4.63;;;;;;;29.88;33.61;97140.19;5048449;28;20216;-73
2022/07/05 07:39:09;;;;;;;8.43;4.57;;;;;;;30.07;33.74;97126.19;5067020;28;20559;-73
2022/07/05 07:41:36;;;;;;;4.33;3.93;;;;;;;30.10;33.88;97125.84;5066700;28;20193;-73
2022/07/05 07:44:03;;;;;;;8.47;4.57;;;;;;;30.40;33.21;97132.75;5066920;28;20196;-73
2022/07/05 07:46:33;;;;;;;5.97;4.20;;;;;;;30.50;33.15;97133.25;5065925;28;20199;-72
2022/07/05 07:49:02;;;;;;;5.63;4.10;;;;;;;30.61;33.19;97128.41;5020071;28;20296;-74
2022/07/05 07:51:30;;;;;;;7.47;4.17;;;;;;;30.68;33.22;97122.09;5066759;28;20197;-74
2022/07/05 07:53:57;;;;;;;8.60;4.00;;;;;;;30.68;33.40;97122.09;5066540;28;20195;-74
2022/07/05 07:56:30;;;;;;;10.13;4.07;;;;;;;30.73;33.56;97125.00;5048914;28;20973;-74
2022/07/05 07:58:58;;;;;;;9.17;4.23;;;;;;;30.82;33.46;97133.72;5048189;28;20186;-74
2022/07/05 08:01:26;;;;;;;8.93;4.40;;;;;;;30.78;33.69;97132.47;5031770;28;20197;-73
2022/07/05 08:03:56;;;;;;;5.57;3.60;;;;;;;30.34;34.19;97138.03;5065789;28;20524;-73
2022/07/05 08:06:24;;;;;;;9.40;5.97;;;;;;;30.50;33.26;97127.09;5066477;28;20212;-72
2022/07/05 08:08:51;;;;;;;11.57;5.30;;;;;;;30.62;34.06;97114.03;5066233;28;20189;-73
2022/07/05 08:11:18;;;;;;;7.47;4.47;;;;;;;30.98;32.67;97133.47;5048230;28;20189;-73
2022/07/05 08:13:47;;;;;;;5.30;4.07;;;;;;;31.17;32.28;97127.44;5065709;28;20189;-73
2022/07/05 08:16:14;;;;;;;6.28;4.70;;;;;;;31.15;32.84;97127.63;5047985;28;20213;-73
2022/07/05 08:22:01;;;;;;;11.63;4.70;;;;;;;31.03;32.19;97131.03;5066448;28;20185;-73
2022/07/05 08:24:20;;;;;;;11.33;5.23;;;;;;;30.85;33.00;97126.16;5063428;28;20193;-73
2022/07/05 08:26:47;;;;;;;9.30;4.57;;;;;;;30.17;34.28;97131.25;5068356;28;20189;-73
2022/07/05 08:29:15;;;;;;;7.73;4.70;;;;;;;30.30;34.66;97134.91;5051528;28;20284;-73
2022/07/05 08:31:51;;;;;;;7.13;4.33;;;;;;;30.46;34.04;97133.81;5070070;28;20585;-72
2022/07/05 08:34:19;;;;;;;7.00;4.13;;;;;;;30.73;33.44;97126.88;5069872;28;20531;-73
2022/07/05 08:36:48;;;;;;;8.40;4.57;;;;;;;30.86;33.42;97129.66;5069676;28;20922;-73
2022/07/05 08:39:15;;;;;;;5.50;4.30;;;;;;;31.13;32.93;97131.50;5052117;28;20636;-74
2022/07/05 08:41:49;;;;;;;5.80;4.83;;;;;;;30.98;33.13;97138.81;5069820;28;20181;-73
2022/07/05 08:44:21;;;;;;;7.05;4.43;;;;;;;31.35;32.97;97130.41;5052369;28;20253;-74
2022/07/05 08:46:52;;;;;;;7.07;4.20;;;;;;;31.61;32.79;97132.44;5069304;28;20192;-74
2022/07/05 08:49:28;;;;;;;8.63;3.78;;;;;;;31.90;32.58;97127.59;5069819;28;20306;-76
2022/07/05 08:51:55;;;;;;;4.43;4.00;;;;;;;31.98;32.33;97132.81;5069455;28;20181;-73
2022/07/05 08:54:24;;;;;;;10.50;5.93;;;;;;;31.63;31.95;97131.22;5069129;28;20276;-73
2022/07/05 08:56:52;;;;;;;7.03;4.00;;;;;;;31.50;32.67;97120.44;5068111;28;20232;-73
2022/07/05 08:59:37;;;;;;;6.33;4.10;;;;;;;31.63;32.76;97125.88;5051147;28;20181;-74
2022/07/05 09:02:08;;;;;;;10.90;4.75;;;;;;;31.74;32.61;97119.91;5035274;28;20265;-74
2022/07/05 09:04:43;;;;;;;9.93;4.40;;;;;;;31.84;31.22;97128.41;5019497;28;20238;-73
2022/07/05 09:07:16;;;;;;;4.93;4.15;;;;;;;31.49;31.79;97123.31;5069354;28;20270;-75
2022/07/05 09:09:47;;;;;;;8.90;5.20;;;;;;;31.59;32.18;97116.59;5069665;28;20708;-73
2022/07/05 09:12:15;;;;;;;6.25;3.83;;;;;;;31.33;32.63;97116.41;5051304;28;20726;-74
2022/07/05 09:14:49;;;;;;;7.25;4.90;;;;;;;31.44;32.76;97117.72;5070169;28;20284;-75
2022/07/05 09:17:16;;;;;;;4.85;3.72;;;;;;;31.39;31.42;97122.84;5069804;28;20189;-75
2022/07/05 09:19:43;;;;;;;8.38;4.47;;;;;;;31.60;31.85;97114.69;5051584;28;20189;-72
2022/07/05 09:22:11;;;;;;;6.75;4.30;;;;;;;31.70;31.78;97081.16;5069364;28;20185;-73
2022/07/05 09:24:45;;;;;;;7.22;4.40;;;;;;;31.93;32.02;97115.69;5069294;28;20186;-72
2022/07/05 09:27:19;;;;;;;6.05;3.97;;;;;;;31.51;32.23;97116.72;5069512;28;20189;-72
2022/07/05 09:29:58;;;;;;;7.60;4.20;;;;;;;31.37;32.30;97108.81;5068684;28;20677;-74
2022/07/05 09:32:31;;;;;;;4.77;4.37;;;;;;;31.71;31.92;97106.94;5051002;28;20192;-74
2022/07/05 09:35:19;;;;;;;9.95;4.60;;;;;;;31.81;31.99;97103.88;5068955;28;20256;-74
2022/07/05 09:37:47;;;;;;;5.63;4.93;;;;;;;31.63;33.08;97108.97;5047205;28;20317;-73
2022/07/05 09:40:14;;;;;;;7.50;5.03;;;;;;;31.58;32.52;97098.00;5064824;28;20273;-74
2022/07/05 09:42:46;;;;;;;8.55;5.30;;;;;;;31.64;32.39;97100.72;5048852;28;20197;-73
2022/07/05 09:45:24;;;;;;;8.52;5.82;;;;;;;31.86;32.54;97088.84;5048739;28;20190;-74
2022/07/05 09:47:55;;;;;;;7.22;5.00;;;;;;;32.03;32.54;97083.97;5048590;28;21003;-73
2022/07/05 09:50:43;;;;;;;9.70;5.20;;;;;;;32.17;32.71;97080.28;5048779;28;20603;-74
2022/07/05 09:53:47;;;;;;;8.68;5.35;;;;;;;32.35;32.76;97079.69;5049300;28;20574;-74
2022/07/05 09:56:15;;;;;;;5.80;4.82;;;;;;;32.42;32.54;97067.13;5048046;28;20827;-74
2022/07/05 09:58:43;;;;;;;8.77;5.10;;;;;;;31.87;32.81;97074.44;5030967;28;20190;-74
2022/07/05 10:01:28;;;;;;;7.57;4.78;;;;;;;31.15;33.44;96983.09;5014159;28;20194;-74
2022/07/05 10:04:02;;;;;;;7.60;4.68;;;;;;;31.37;33.33;96965.06;5048293;28;20194;-74
2022/07/05 10:06:33;;;;;;;4.97;4.47;;;;;;;31.47;33.40;97028.97;5015174;28;20284;-75
2022/07/05 10:09:00;;;;;;;9.52;4.68;;;;;;;31.73;33.43;97070.06;5046415;28;20198;-73
2022/07/05 10:11:28;;;;;;;7.50;5.00;;;;;;;31.92;33.09;97069.28;5047175;28;20677;-73
2022/07/05 10:13:58;;;;;;;9.18;4.80;;;;;;;32.18;33.20;97087.31;5046966;28;20182;-73
2022/07/05 10:16:26;;;;;;;8.80;5.10;;;;;;;31.71;34.00;97068.59;5048580;28;20218;-73
2022/07/05 10:18:56;;;;;;;11.73;5.57;;;;;;;31.62;34.06;97065.28;5046830;28;20270;-74
2022/07/05 10:21:26;;;;;;;7.78;4.93;;;;;;;31.72;34.11;97071.06;5063232;28;20186;-73
2022/07/05 10:23:55;;;;;;;8.48;5.38;;;;;;;32.13;33.87;97065.63;5047119;28;20272;-74
2022/07/05 10:26:24;;;;;;;8.25;4.90;;;;;;;32.61;33.34;97071.69;5046748;28;20899;-74
2022/07/05 10:28:53;;;;;;;7.90;4.88;;;;;;;32.39;33.24;97056.81;5047687;28;20274;-73
2022/07/05 10:31:29;;;;;;;8.23;5.05;;;;;;;32.47;33.75;97070.03;5047285;28;20256;-73
2022/07/05 10:34:00;;;;;;;8.05;5.15;;;;;;;32.42;33.58;97069.81;5048638;28;20194;-74
2022/07/05 10:36:28;;;;;;;8.23;5.25;;;;;;;32.35;33.32;97044.84;5056249;28;20315;-74
2022/07/05 10:38:55;;;;;;;9.63;5.40;;;;;;;32.48;34.01;97060.97;5067720;28;20573;-74
2022/07/05 10:41:24;;;;;;;7.97;5.82;;;;;;;32.63;33.48;97037.44;5068712;28;20925;-74
2022/07/05 10:43:55;;;;;;;11.38;5.85;;;;;;;32.75;33.97;97057.22;5016667;28;20284;-74
2022/07/05 10:46:37;;;;;;;11.25;5.28;;;;;;;32.94;33.18;97060.91;5050081;28;20443;-73
2022/07/05 10:49:17;;;;;;;6.53;5.57;;;;;;;32.78;33.59;97048.78;5067334;28;20193;-73
2022/07/05 10:51:44;;;;;;;9.32;5.03;;;;;;;33.12;32.96;97053.09;5050244;28;20191;-73
2022/07/05 10:54:19;;;;;;;10.90;4.85;;;;;;;33.28;32.76;97047.25;5067032;28;20636;-73
2022/07/05 10:57:21;;;;;;;11.10;5.18;;;;;;;33.46;32.37;97045.53;5067552;28;20213;-74
2022/07/05 11:00:08;;;;;;;11.52;5.70;;;;;;;33.67;32.41;97047.91;5049640;28;20273;-74
2022/07/05 11:02:36;;;;;;;9.00;4.88;;;;;;;32.97;33.35;97034.50;5068480;28;20189;-73
2022/07/05 11:05:03;;;;;;;8.73;4.65;;;;;;;32.87;33.91;97042.16;5067643;28;20330;-73
2022/07/05 11:08:02;;;;;;;8.65;5.65;;;;;;;33.09;33.54;97043.59;5067837;28;20576;-73
2022/07/05 11:10:32;;;;;;;5.43;4.80;;;;;;;32.09;34.62;97040.28;5067382;28;20284;-73
2022/07/05 11:12:59;;;;;;;5.68;5.03;;;;;;;32.36;33.65;97031.22;5067511;28;20253;-73
2022/07/05 11:15:26;;;;;;;6.60;5.03;;;;;;;32.75;33.98;97035.75;5068003;28;20617;-74
2022/07/05 11:18:14;;;;;;;8.38;4.50;;;;;;;32.66;34.45;97037.88;5049033;28;20649;-74
2022/07/05 11:20:42;;;;;;;9.90;5.07;;;;;;;32.57;34.31;97039.09;5067851;28;20209;-74
2022/07/05 11:23:11;;;;;;;10.55;5.15;;;;;;;32.52;34.16;97030.03;5068117;28;20239;-74
2022/07/05 11:25:47;;;;;;;9.15;5.65;;;;;;;32.91;33.85;97021.94;5066145;28;20200;-74
2022/07/05 11:28:23;;;;;;;5.68;4.57;;;;;;;33.28;33.64;97021.22;5033358;28;20208;-74
2022/07/05 11:30:56;;;;;;;6.10;4.57;;;;;;;33.09;33.60;97016.75;5068329;28;20197;-74
2022/07/05 11:33:44;;;;;;;9.63;5.60;;;;;;;32.57;33.92;97030.22;5041877;28;20185;-73
2022/07/05 11:36:32;;;;;;;5.80;4.55;;;;;;;32.13;34.55;97008.53;5076121;28;20231;-74
2022/07/05 11:39:17;;;;;;;8.25;4.38;;;;;;;32.11;35.30;97024.81;5076599;28;20239;-73
2022/07/05 11:41:46;;;;;;;5.60;4.72;;;;;;;32.13;35.49;97003.19;5059118;28;20401;-74
2022/07/05 11:44:14;;;;;;;5.53;4.93;;;;;;;32.21;35.39;97011.03;5076215;28;20193;-73
2022/07/05 11:46:45;;;;;;;8.90;5.63;;;;;;;32.51;35.00;97001.53;5070099;28;20200;-74
2022/07/05 11:49:20;;;;;;;7.57;5.28;;;;;;;32.73;34.22;97000.28;5069680;28;20219;-75
2022/07/05 11:52:01;;;;;;;5.28;4.78;;;;;;;32.12;35.62;97009.56;5069141;28;20200;-72
2022/07/05 11:54:34;;;;;;;9.27;5.03;;;;;;;32.17;34.99;97007.91;5070395;28;20185;-74